Time;durP1;ratioP1;P1;durP2;ratioP2;P2;SDS_P1;SDS_P2;PMS_P1;PMS_P2;Temp;Humidity;BMP_temperature;BMP_pressure;BME280_temperature;BME280_humidity;BME280_pressure;Samples;Min_cycle;Max_cycle;Signal;HPM_P1;HPM_P2
2021/09/01 00:00:27;;;;;;;13.60;10.68;;;19.50;90.70;;;;;;5013766;28;20052;-81
2021/09/01 00:02:54;;;;;;;14.98;10.57;;;19.60;90.80;;;;;;5013743;28;20050;-82
2021/09/01 00:05:21;;;;;;;11.52;10.15;;;19.60;90.60;;;;;;5000320;28;20045;-82
2021/09/01 00:07:47;;;;;;;15.68;10.82;;;19.60;90.40;;;;;;5000226;28;20022;-82
2021/09/01 00:10:13;;;;;;;18.13;11.63;;;19.60;90.40;;;;;;5013689;28;20038;-82
2021/09/01 00:12:40;;;;;;;15.63;10.90;;;19.60;90.90;;;;;;5013549;28;20022;-83
2021/09/01 00:15:07;;;;;;;15.52;11.68;;;19.60;90.90;;;;;;5012541;28;20076;-82
2021/09/01 00:17:35;;;;;;;15.45;11.88;;;19.70;91.00;;;;;;5013777;28;20029;-81
2021/09/01 00:20:02;;;;;;;17.65;11.80;;;19.60;90.70;;;;;;5013918;28;20065;-82
2021/09/01 00:22:28;;;;;;;14.80;11.05;;;19.60;90.70;;;;;;5013710;28;20025;-80
2021/09/01 00:24:53;;;;;;;16.45;11.13;;;19.60;90.40;;;;;;5014009;28;20430;-82
2021/09/01 00:27:19;;;;;;;12.63;10.63;;;19.60;90.00;;;;;;5017691;28;20100;-81
2021/09/01 00:29:45;;;;;;;16.02;10.73;;;19.50;90.20;;;;;;5021577;28;20550;-82
2021/09/01 00:32:11;;;;;;;18.10;12.00;;;19.50;90.50;;;;;;5015774;28;20350;-82
2021/09/01 00:34:36;;;;;;;16.83;10.90;;;19.50;90.30;;;;;;5013248;28;20066;-82
2021/09/01 00:37:03;;;;;;;15.15;9.98;;;19.50;89.90;;;;;;5011920;28;20030;-81
2021/09/01 00:39:28;;;;;;;15.85;10.40;;;19.40;89.00;;;;;;5012955;28;20022;-81
2021/09/01 00:41:54;;;;;;;20.05;11.70;;;19.40;89.00;;;;;;5013114;28;20026;-82
2021/09/01 00:44:23;;;;;;;15.02;10.00;;;19.40;88.90;;;;;;5012490;28;20050;-83
2021/09/01 00:46:56;;;;;;;17.38;10.77;;;19.40;89.30;;;;;;5012798;28;20022;-84
2021/09/01 00:49:31;;;;;;;15.48;11.07;;;19.40;90.30;;;;;;5011719;28;20041;-83
2021/09/01 00:51:58;;;;;;;14.48;11.75;;;19.40;90.30;;;;;;5013088;28;20021;-82
2021/09/01 00:54:26;;;;;;;15.32;11.07;;;19.50;90.90;;;;;;5012997;28;20155;-82
2021/09/01 00:56:55;;;;;;;14.75;11.30;;;19.50;90.70;;;;;;5012896;28;20033;-80
2021/09/01 00:59:30;;;;;;;16.92;11.93;;;19.60;90.80;;;;;;5012950;28;20029;-83
2021/09/01 01:01:57;;;;;;;21.30;11.57;;;19.60;90.40;;;;;;5017208;28;20041;-82
2021/09/01 01:04:27;;;;;;;18.13;11.10;;;19.60;90.30;;;;;;5004743;28;20471;-80
2021/09/01 01:06:58;;;;;;;16.17;10.95;;;19.70;90.50;;;;;;5013669;28;20127;-82
2021/09/01 01:09:24;;;;;;;16.27;11.85;;;19.80;90.70;;;;;;5011509;28;20559;-82
2021/09/01 01:12:02;;;;;;;23.55;13.27;;;19.80;90.80;;;;;;5012425;28;20037;-82
2021/09/01 01:14:28;;;;;;;16.80;11.98;;;19.80;90.90;;;;;;5012554;28;20018;-83
2021/09/01 01:16:55;;;;;;;23.67;12.25;;;19.80;90.90;;;;;;5012584;28;20022;-82
2021/09/01 01:19:21;;;;;;;20.17;12.15;;;19.80;90.80;;;;;;5012482;28;20054;-81
2021/09/01 01:21:47;;;;;;;15.02;11.18;;;19.80;90.80;;;;;;5012846;28;20382;-82
2021/09/01 01:24:13;;;;;;;22.08;12.00;;;19.80;90.80;;;;;;5011189;28;20030;-84
2021/09/01 01:26:39;;;;;;;15.93;12.57;;;19.80;90.80;;;;;;5012526;28;20049;-83
2021/09/01 01:29:09;;;;;;;21.92;13.45;;;19.80;90.90;;;;;;5012443;28;20458;-82
2021/09/01 01:31:37;;;;;;;25.05;15.48;;;19.80;90.90;;;;;;4995050;28;20065;-83
2021/09/01 01:34:03;;;;;;;28.75;18.27;;;19.80;90.80;;;;;;5012910;28;20026;-82
2021/09/01 01:36:29;;;;;;;37.10;22.25;;;19.80;90.60;;;;;;5012743;28;20097;-81
2021/09/01 01:38:55;;;;;;;26.80;16.30;;;19.80;90.50;;;;;;5012581;28;20058;-82
2021/09/01 01:41:21;;;;;;;35.63;24.55;;;19.80;90.80;;;;;;5012259;28;20484;-81
2021/09/01 01:43:48;;;;;;;40.05;25.20;;;19.70;90.60;;;;;;5010794;28;20487;-82
2021/09/01 01:46:14;;;;;;;35.75;22.35;;;19.70;90.40;;;;;;5012335;28;20030;-81
2021/09/01 01:48:40;;;;;;;40.97;24.08;;;19.60;90.70;;;;;;5010138;28;20030;-81
2021/09/01 01:51:06;;;;;;;39.50;24.20;;;19.50;90.70;;;;;;5012243;28;20029;-82
2021/09/01 01:53:32;;;;;;;40.58;23.60;;;19.40;90.90;;;;;;5001380;28;20515;-80
2021/09/01 01:55:59;;;;;;;40.35;22.80;;;19.40;91.30;;;;;;5007343;28;20025;-82
2021/09/01 01:58:25;;;;;;;34.33;22.05;;;19.40;91.30;;;;;;4997349;28;20022;-81
2021/09/01 02:00:51;;;;;;;25.63;19.40;;;19.40;91.50;;;;;;5012598;28;20030;-81
2021/09/01 02:03:18;;;;;;;23.52;17.75;;;19.40;91.70;;;;;;5012030;28;20048;-81
2021/09/01 02:05:44;;;;;;;;;;;19.30;91.80;;;;;;5012437;28;20097;-79
2021/09/01 02:08:10;;;;;;;29.40;18.80;;;19.30;91.30;;;;;;5011859;28;19909;-81
2021/09/01 02:10:36;;;;;;;28.40;18.35;;;19.20;91.90;;;;;;5011996;28;20050;-81
2021/09/01 02:13:02;;;;;;;25.25;18.27;;;19.10;92.00;;;;;;5011976;28;20022;-81
2021/09/01 02:15:28;;;;;;;22.95;17.25;;;19.00;92.10;;;;;;5010946;28;20028;-81
2021/09/01 02:17:54;;;;;;;28.45;17.95;;;19.00;92.20;;;;;;5012113;28;20067;-81
2021/09/01 02:20:20;;;;;;;21.92;16.38;;;18.90;92.30;;;;;;5011803;28;20105;-80
2021/09/01 02:22:47;;;;;;;26.40;16.95;;;18.90;92.50;;;;;;5012762;28;20040;-80
2021/09/01 02:25:14;;;;;;;22.08;16.77;;;18.80;92.70;;;;;;5014018;28;20128;-80
2021/09/01 02:27:40;;;;;;;25.30;16.77;;;18.70;92.70;;;;;;5015566;28;20036;-79
2021/09/01 02:30:08;;;;;;;26.63;16.60;;;18.70;92.80;;;;;;5015278;28;20303;-80
2021/09/01 02:32:34;;;;;;;25.00;17.00;;;18.70;93.20;;;;;;5015774;28;20056;-79
2021/09/01 02:35:00;;;;;;;22.92;16.23;;;18.60;93.00;;;;;;5015472;28;20029;-80
2021/09/01 02:37:26;;;;;;;32.83;17.60;;;18.60;93.10;;;;;;5015111;28;20028;-79
2021/09/01 02:39:52;;;;;;;22.15;15.60;;;18.70;93.00;;;;;;5015335;28;20026;-79
2021/09/01 02:42:18;;;;;;;24.00;16.73;;;18.70;92.70;;;;;;5015049;28;20105;-81
2021/09/01 02:44:44;;;;;;;20.00;16.73;;;18.80;92.40;;;;;;5015120;28;20057;-80
2021/09/01 02:47:10;;;;;;;21.45;15.18;;;18.90;92.50;;;;;;5013832;28;20730;-80
2021/09/01 02:49:35;;;;;;;19.45;14.70;;;18.90;92.30;;;;;;5015342;28;20441;-81
2021/09/01 02:52:02;;;;;;;23.73;15.15;;;19.10;92.00;;;;;;5015126;28;20029;-82
2021/09/01 02:54:27;;;;;;;21.10;15.43;;;19.10;91.90;;;;;;5014892;28;20032;-80
2021/09/01 02:56:54;;;;;;;21.80;15.27;;;19.20;91.70;;;;;;5013505;28;20025;-81
2021/09/01 02:59:19;;;;;;;21.52;14.57;;;19.30;91.70;;;;;;5014852;28;20025;-79
2021/09/01 03:01:45;;;;;;;19.33;16.45;;;19.30;91.40;;;;;;5015063;28;20132;-81
2021/09/01 03:04:11;;;;;;;25.65;16.63;;;19.30;91.30;;;;;;5014840;28;20076;-80
2021/09/01 03:06:37;;;;;;;24.15;15.50;;;19.40;90.80;;;;;;5018133;28;20553;-80
2021/09/01 03:09:03;;;;;;;20.23;15.75;;;19.40;90.80;;;;;;5018474;28;20026;-81
2021/09/01 03:11:29;;;;;;;26.23;16.73;;;19.40;90.90;;;;;;5018688;28;20018;-81
2021/09/01 03:13:54;;;;;;;19.58;16.73;;;19.30;91.20;;;;;;5015426;28;20025;-84
2021/09/01 03:16:20;;;;;;;24.10;17.15;;;19.40;91.40;;;;;;5013504;28;20065;-83
2021/09/01 03:18:46;;;;;;;29.52;17.08;;;19.30;91.40;;;;;;5014900;28;20041;-82
2021/09/01 03:21:12;;;;;;;25.83;19.50;;;19.30;91.40;;;;;;5016042;28;20022;-81
2021/09/01 03:23:38;;;;;;;30.13;18.40;;;19.30;91.50;;;;;;5023459;28;20057;-83
2021/09/01 03:26:05;;;;;;;29.08;19.85;;;19.30;91.50;;;;;;5017186;28;20060;-82
2021/09/01 03:28:30;;;;;;;34.83;18.10;;;19.40;91.50;;;;;;5015639;28;20033;-81
2021/09/01 03:30:56;;;;;;;27.27;16.52;;;19.40;91.60;;;;;;5014061;28;20034;-81
2021/09/01 03:33:22;;;;;;;22.35;16.33;;;19.40;91.00;;;;;;5013998;28;20029;-82
2021/09/01 03:35:48;;;;;;;30.65;18.13;;;19.40;91.10;;;;;;5014657;28;20026;-83
2021/09/01 03:38:15;;;;;;;27.08;18.05;;;19.50;90.90;;;;;;5014493;28;20541;-83
2021/09/01 03:40:41;;;;;;;24.35;17.25;;;19.50;90.90;;;;;;5014543;28;20022;-82
2021/09/01 03:43:07;;;;;;;26.50;18.33;;;19.50;90.70;;;;;;5013941;28;20042;-82
2021/09/01 03:45:33;;;;;;;25.30;16.65;;;19.50;90.70;;;;;;5013945;28;20026;-84
2021/09/01 03:47:58;;;;;;;31.85;16.85;;;19.50;90.90;;;;;;5013873;28;20058;-83
2021/09/01 03:50:24;;;;;;;22.65;17.20;;;19.60;90.40;;;;;;5011845;28;20025;-81
2021/09/01 03:52:50;;;;;;;25.00;16.98;;;19.50;90.30;;;;;;5003304;28;20030;-84
2021/09/01 03:55:16;;;;;;;25.65;17.95;;;19.50;90.50;;;;;;5013583;28;20102;-84
2021/09/01 03:57:42;;;;;;;23.38;17.52;;;19.40;90.80;;;;;;5013939;28;20038;-80
2021/09/01 04:00:09;;;;;;;26.48;17.92;;;19.20;90.80;;;;;;5013966;28;20093;-81
2021/09/01 04:02:35;;;;;;;23.35;16.27;;;19.10;91.10;;;;;;5013654;28;20029;-83
2021/09/01 04:05:01;;;;;;;20.70;15.77;;;19.10;91.30;;;;;;5017258;28;20029;-83
2021/09/01 04:07:27;;;;;;;28.85;15.82;;;19.10;91.20;;;;;;5013579;28;20037;-82
2021/09/01 04:09:53;;;;;;;25.40;17.85;;;19.10;91.10;;;;;;5013891;28;20557;-84
2021/09/01 04:12:19;;;;;;;22.80;16.73;;;19.10;91.20;;;;;;5014265;28;20573;-82
2021/09/01 04:14:44;;;;;;;28.30;16.85;;;19.10;91.00;;;;;;5013524;28;20387;-83
2021/09/01 04:17:10;;;;;;;21.65;17.02;;;19.10;91.20;;;;;;5013614;28;20033;-82
2021/09/01 04:19:36;;;;;;;22.67;15.75;;;19.20;91.30;;;;;;5013410;28;20495;-82
2021/09/01 04:22:04;;;;;;;22.83;16.20;;;19.30;91.00;;;;;;5013360;28;20076;-82
2021/09/01 04:24:30;;;;;;;;;;;19.30;91.10;;;;;;5013763;28;20515;-81
2021/09/01 04:26:59;;;;;;;28.48;16.85;;;19.30;90.90;;;;;;5013217;28;19905;-84
2021/09/01 04:29:25;;;;;;;23.85;16.30;;;19.30;90.90;;;;;;5013314;28;20041;-81
2021/09/01 04:31:51;;;;;;;26.17;15.70;;;19.40;90.60;;;;;;5013459;28;20305;-84
2021/09/01 04:34:17;;;;;;;21.70;14.15;;;19.40;90.10;;;;;;5013172;28;20109;-82
2021/09/01 04:36:42;;;;;;;24.52;14.23;;;19.40;88.80;;;;;;5011762;28;20029;-82
2021/09/01 04:39:08;;;;;;;23.83;14.40;;;19.30;88.80;;;;;;5001017;28;20022;-81
2021/09/01 04:41:34;;;;;;;25.25;15.70;;;19.30;88.60;;;;;;5013035;28;20383;-81
2021/09/01 04:44:00;;;;;;;23.35;14.65;;;19.20;88.40;;;;;;5012724;28;20046;-83
2021/09/01 04:46:27;;;;;;;28.30;15.50;;;19.20;88.40;;;;;;5010931;28;20053;-81
2021/09/01 04:48:53;;;;;;;31.40;15.05;;;19.10;88.40;;;;;;5012699;28;20431;-81
2021/09/01 04:51:19;;;;;;;22.20;13.88;;;19.10;88.40;;;;;;5011612;28;20057;-82
2021/09/01 04:53:45;;;;;;;32.40;15.25;;;19.20;88.40;;;;;;5012781;28;20087;-82
2021/09/01 04:56:11;;;;;;;24.35;14.98;;;19.20;88.50;;;;;;5012563;28;20026;-82
2021/09/01 04:58:36;;;;;;;20.92;14.90;;;19.30;88.40;;;;;;5012583;28;20053;-80
2021/09/01 05:01:02;;;;;;;20.20;13.75;;;19.30;88.10;;;;;;5012572;28;20097;-82
2021/09/01 05:03:28;;;;;;;27.10;14.70;;;19.30;88.20;;;;;;5013063;28;20360;-81
2021/09/01 05:05:54;;;;;;;21.40;14.07;;;19.30;88.60;;;;;;5012733;28;20399;-80
2021/09/01 05:08:20;;;;;;;24.33;14.93;;;19.30;88.70;;;;;;5011007;28;20091;-80
2021/09/01 05:10:45;;;;;;;32.85;16.02;;;19.20;88.80;;;;;;5011605;28;20042;-81
2021/09/01 05:13:11;;;;;;;28.42;14.48;;;19.20;89.10;;;;;;5012737;28;20096;-80
2021/09/01 05:15:37;;;;;;;25.92;14.68;;;19.20;89.40;;;;;;5017349;28;20116;-82
2021/09/01 05:18:03;;;;;;;20.52;14.85;;;19.20;89.40;;;;;;5015028;28;20387;-81
2021/09/01 05:20:29;;;;;;;20.58;14.70;;;19.20;88.90;;;;;;5012754;28;20022;-82
2021/09/01 05:23:01;;;;;;;23.23;13.18;;;19.30;89.00;;;;;;5011377;28;20030;-82
2021/09/01 05:25:30;;;;;;;20.05;14.55;;;19.40;88.60;;;;;;5008780;28;20076;-81
2021/09/01 05:27:57;;;;;;;21.88;14.60;;;19.40;88.60;;;;;;5012485;28;20044;-82
2021/09/01 05:30:23;;;;;;;34.93;16.10;;;19.50;88.30;;;;;;5012411;28;20026;-82
2021/09/01 05:32:51;;;;;;;23.00;13.73;;;19.50;88.40;;;;;;5012511;28;20152;-82
2021/09/01 05:35:17;;;;;;;20.80;13.68;;;19.60;87.70;;;;;;5012949;28;20022;-82
2021/09/01 05:37:44;;;;;;;24.00;15.83;;;19.70;87.50;;;;;;5020209;28;20393;-82
2021/09/01 05:40:12;;;;;;;26.20;13.80;;;19.80;87.30;;;;;;5015388;28;20034;-82
2021/09/01 05:42:38;;;;;;;22.00;13.90;;;20.00;86.60;;;;;;5013186;28;20051;-82
2021/09/01 05:45:06;;;;;;;22.20;14.27;;;20.20;86.30;;;;;;5012415;28;20054;-81
2021/09/01 05:47:32;;;;;;;22.13;14.02;;;20.20;86.10;;;;;;5012131;28;20026;-84
2021/09/01 05:49:59;;;;;;;21.48;13.00;;;20.30;86.00;;;;;;5011712;28;20466;-83
2021/09/01 05:52:27;;;;;;;19.38;13.48;;;20.30;84.90;;;;;;5011432;28;20025;-84
2021/09/01 05:54:56;;;;;;;19.92;12.90;;;20.30;84.60;;;;;;5012618;28;20087;-83
2021/09/01 05:57:35;;;;;;;16.60;12.10;;;20.60;83.80;;;;;;5016401;28;20014;-81
2021/09/01 06:00:07;;;;;;;18.70;12.10;;;20.80;81.70;;;;;;5011233;28;20495;-81
2021/09/01 06:02:35;;;;;;;15.68;10.70;;;20.90;80.90;;;;;;5016806;28;20057;-83
2021/09/01 06:05:04;;;;;;;17.48;12.32;;;21.00;80.10;;;;;;5016339;28;20040;-83
2021/09/01 06:07:30;;;;;;;12.98;10.40;;;21.20;79.20;;;;;;5015535;28;20022;-81
2021/09/01 06:09:59;;;;;;;20.77;12.05;;;21.30;77.90;;;;;;5015813;28;20033;-84
2021/09/01 06:12:27;;;;;;;16.42;11.98;;;21.30;78.50;;;;;;5016876;28;20053;-84
2021/09/01 06:14:54;;;;;;;19.17;11.60;;;21.50;77.70;;;;;;5012541;28;20084;-84
2021/09/01 06:17:20;;;;;;;25.77;12.05;;;22.00;75.90;;;;;;5017234;28;20033;-82
2021/09/01 06:19:46;;;;;;;23.77;11.75;;;22.00;75.10;;;;;;5018283;28;20052;-80
2021/09/01 06:22:17;;;;;;;17.70;12.20;;;22.20;75.30;;;;;;5014175;28;20475;-84
2021/09/01 06:24:43;;;;;;;16.85;11.85;;;22.30;74.00;;;;;;5014715;28;20479;-84
2021/09/01 06:27:09;;;;;;;18.27;11.35;;;22.30;74.70;;;;;;5015922;28;20060;-85
2021/09/01 06:29:36;;;;;;;20.83;12.00;;;22.40;74.40;;;;;;5015133;28;20018;-84
2021/09/01 06:32:03;;;;;;;15.48;10.55;;;22.60;73.80;;;;;;5015532;28;20072;-85
2021/09/01 06:34:28;;;;;;;16.33;10.02;;;22.70;72.30;;;;;;5015456;28;20476;-84
2021/09/01 06:36:54;;;;;;;16.42;10.40;;;22.70;72.00;;;;;;5015440;28;20101;-84
2021/09/01 06:39:20;;;;;;;17.73;10.95;;;22.70;72.20;;;;;;5015361;28;20409;-84
2021/09/01 06:41:46;;;;;;;19.60;10.95;;;23.00;72.50;;;;;;5015304;28;20073;-86
2021/09/01 06:44:12;;;;;;;15.32;9.38;;;23.30;70.20;;;;;;5015057;28;20077;-83
2021/09/01 06:46:39;;;;;;;20.13;10.82;;;23.80;69.20;;;;;;5015056;28;20026;-84
2021/09/01 06:49:05;;;;;;;21.92;11.07;;;24.00;67.50;;;;;;5006179;28;20022;-83
2021/09/01 06:51:30;;;;;;;19.90;11.02;;;24.20;66.00;;;;;;5018310;28;20042;-84
2021/09/01 06:53:56;;;;;;;14.75;10.25;;;24.10;66.10;;;;;;5018826;28;20486;-83
2021/09/01 06:56:22;;;;;;;16.08;10.38;;;23.90;66.20;;;;;;5014918;28;20101;-84
2021/09/01 06:58:48;;;;;;;16.95;11.48;;;23.70;66.30;;;;;;5015054;28;20129;-84
2021/09/01 07:01:14;;;;;;;19.65;11.48;;;23.10;67.00;;;;;;5014929;28;20022;-83
2021/09/01 07:03:39;;;;;;;20.02;11.98;;;22.60;69.10;;;;;;5013729;28;20030;-82
2021/09/01 07:06:05;;;;;;;18.88;11.73;;;22.40;70.20;;;;;;5016104;28;20141;-85
2021/09/01 07:08:34;;;;;;;21.52;11.52;;;22.30;71.00;;;;;;5015803;28;20040;-84
2021/09/01 07:11:00;;;;;;;23.83;13.20;;;22.50;71.60;;;;;;5018859;28;20034;-82
2021/09/01 07:13:25;;;;;;;19.80;12.13;;;22.80;71.20;;;;;;5016779;28;20018;-84
2021/09/01 07:15:54;;;;;;;17.88;12.95;;;23.10;70.50;;;;;;5015380;28;20030;-84
2021/09/01 07:18:19;;;;;;;19.83;13.00;;;23.30;70.00;;;;;;5015958;28;20029;-83
2021/09/01 07:20:45;;;;;;;21.27;13.63;;;23.20;70.00;;;;;;5018658;28;20022;-83
2021/09/01 07:23:11;;;;;;;20.98;12.70;;;23.20;69.90;;;;;;5014484;28;20033;-83
2021/09/01 07:25:37;;;;;;;19.15;13.20;;;23.30;70.00;;;;;;5014818;28;20034;-84
2021/09/01 07:28:04;;;;;;;18.95;13.18;;;23.20;70.70;;;;;;5014578;28;20083;-82
2021/09/01 07:30:31;;;;;;;15.60;11.20;;;23.10;69.60;;;;;;5014556;28;20029;-81
2021/09/01 07:32:57;;;;;;;21.85;11.77;;;23.10;68.60;;;;;;5014445;28;20022;-84
2021/09/01 07:35:23;;;;;;;19.08;11.85;;;23.30;69.10;;;;;;5014503;28;20033;-83
2021/09/01 07:37:51;;;;;;;21.55;12.48;;;23.40;68.60;;;;;;5014472;28;20018;-84
2021/09/01 07:40:17;;;;;;;;;;;23.50;68.40;;;;;;5014913;28;20113;-85
2021/09/01 07:42:44;;;;;;;24.25;13.77;;;23.60;69.00;;;;;;5013519;28;19905;-83
2021/09/01 07:45:12;;;;;;;16.33;10.15;;;23.50;67.30;;;;;;5016860;28;20124;-83
2021/09/01 07:47:44;;;;;;;14.60;9.65;;;24.00;65.70;;;;;;5021282;28;20054;-84
2021/09/01 07:50:10;;;;;;;11.82;9.63;;;24.40;63.30;;;;;;5014914;28;20391;-85
2021/09/01 07:52:36;;;;;;;19.15;10.57;;;24.50;62.50;;;;;;5014716;28;20030;-83
2021/09/01 07:55:02;;;;;;;19.63;12.35;;;24.60;62.10;;;;;;5015136;28;20383;-83
2021/09/01 07:57:28;;;;;;;20.20;13.20;;;24.50;63.40;;;;;;5014558;28;20022;-83
2021/09/01 07:59:53;;;;;;;21.98;11.85;;;24.30;63.80;;;;;;5014590;28;20104;-83
2021/09/01 08:02:19;;;;;;;16.40;12.23;;;24.20;64.90;;;;;;5013018;28;20030;-83
2021/09/01 08:04:45;;;;;;;15.85;11.07;;;24.30;63.60;;;;;;5014751;28;20171;-84
2021/09/01 08:07:11;;;;;;;16.00;10.50;;;24.30;64.70;;;;;;5013560;28;20030;-83
2021/09/01 08:09:37;;;;;;;15.75;9.52;;;24.30;62.80;;;;;;5013821;28;20018;-85
2021/09/01 08:12:03;;;;;;;16.77;9.85;;;24.20;62.40;;;;;;5014095;28;20049;-83
2021/09/01 08:14:29;;;;;;;14.02;9.35;;;24.10;61.10;;;;;;5012598;28;20025;-85
2021/09/01 08:16:54;;;;;;;13.57;9.60;;;24.00;61.60;;;;;;5014134;28;20033;-84
2021/09/01 08:19:20;;;;;;;21.42;12.13;;;24.40;61.30;;;;;;5014473;28;20025;-84
2021/09/01 08:21:46;;;;;;;20.20;10.73;;;25.00;60.80;;;;;;5011882;28;20467;-84
2021/09/01 08:24:12;;;;;;;16.38;10.40;;;25.70;58.40;;;;;;5013824;28;20084;-83
2021/09/01 08:26:38;;;;;;;17.90;11.23;;;27.20;57.00;;;;;;5013532;28;20057;-82
2021/09/01 08:29:03;;;;;;;19.38;12.15;;;30.50;54.30;;;;;;5013433;28;20084;-84
2021/09/01 08:31:29;;;;;;;18.13;9.93;;;30.80;50.40;;;;;;5013631;28;20064;-86
2021/09/01 08:33:55;;;;;;;14.57;8.73;;;32.60;46.00;;;;;;5012727;28;20025;-87
2021/09/01 08:36:21;;;;;;;14.05;11.05;;;32.10;44.60;;;;;;5014271;28;20041;-83
2021/09/01 08:38:47;;;;;;;20.87;12.10;;;30.80;46.00;;;;;;5013798;28;20101;-84
2021/09/01 08:41:15;;;;;;;20.58;11.55;;;29.60;48.10;;;;;;5013437;28;20026;-84
2021/09/01 08:43:41;;;;;;;20.38;12.55;;;28.60;50.20;;;;;;5020392;28;20046;-83
2021/09/01 08:46:07;;;;;;;20.98;13.85;;;27.70;52.30;;;;;;5010291;28;20041;-84
2021/09/01 08:48:36;;;;;;;21.17;15.40;;;26.90;54.20;;;;;;5013613;28;20014;-84
2021/09/01 08:51:01;;;;;;;23.40;15.32;;;26.40;56.50;;;;;;5013395;28;20037;-86
2021/09/01 08:53:27;;;;;;;23.15;14.32;;;26.50;57.10;;;;;;5013450;28;20117;-84
2021/09/01 08:55:53;;;;;;;21.00;14.02;;;26.20;57.70;;;;;;5013363;28;20390;-83
2021/09/01 08:58:19;;;;;;;19.58;14.20;;;25.90;59.00;;;;;;5013712;28;20022;-83
2021/09/01 09:00:45;;;;;;;23.38;15.73;;;25.40;60.60;;;;;;5013214;28;20041;-84
2021/09/01 09:03:11;;;;;;;21.45;14.68;;;24.80;61.80;;;;;;5013345;28;20479;-85
2021/09/01 09:05:39;;;;;;;18.58;13.98;;;24.30;63.80;;;;;;5013567;28;20030;-84
2021/09/01 09:08:13;;;;;;;17.65;12.82;;;23.90;64.90;;;;;;5013746;28;20026;-86
2021/09/01 09:10:45;;;;;;;20.50;12.55;;;23.40;66.20;;;;;;5017362;28;20027;-85
2021/09/01 09:13:34;;;;;;;15.02;10.98;;;23.00;68.20;;;;;;5016807;28;20022;-84
2021/09/01 09:16:09;;;;;;;15.43;11.95;;;22.80;70.40;;;;;;5013491;28;20017;-84
2021/09/01 09:18:37;;;;;;;15.73;10.48;;;22.70;69.60;;;;;;4999888;28;20174;-84
2021/09/01 09:21:20;;;;;;;14.52;9.73;;;22.70;69.60;;;;;;5013403;28;20025;-86
2021/09/01 09:23:48;;;;;;;18.42;10.98;;;22.60;69.20;;;;;;5008823;28;20108;-84
2021/09/01 09:26:25;;;;;;;18.52;11.43;;;22.50;69.10;;;;;;5020760;28;20065;-83
2021/09/01 09:29:10;;;;;;;13.18;9.35;;;22.40;69.10;;;;;;5001974;28;20084;-85
2021/09/01 09:31:36;;;;;;;14.65;9.95;;;22.50;69.00;;;;;;5013911;28;20057;-84
2021/09/01 09:34:06;;;;;;;13.53;8.97;;;22.40;68.80;;;;;;5017374;28;20025;-84
2021/09/01 09:36:32;;;;;;;15.82;10.60;;;22.30;68.60;;;;;;5016945;28;20128;-83
2021/09/01 09:38:58;;;;;;;15.25;10.05;;;22.20;69.60;;;;;;5016664;28;20042;-84
2021/09/01 09:41:27;;;;;;;15.07;8.55;;;22.20;70.60;;;;;;5016387;28;20049;-84
2021/09/01 09:43:57;;;;;;;16.05;9.18;;;22.20;69.50;;;;;;5015945;28;20042;-83
2021/09/01 09:46:23;;;;;;;15.75;9.80;;;22.20;70.60;;;;;;5016573;28;20510;-85
2021/09/01 09:48:50;;;;;;;11.32;7.70;;;22.10;71.30;;;;;;5016582;28;20062;-85
2021/09/01 09:51:41;;;;;;;16.73;8.97;;;21.90;72.50;;;;;;5017560;28;20022;-84
2021/09/01 09:54:21;;;;;;;20.05;10.18;;;21.60;72.90;;;;;;5015943;28;20266;-84
2021/09/01 09:56:49;;;;;;;13.85;9.40;;;21.30;74.70;;;;;;5016183;28;20499;-85
2021/09/01 09:59:19;;;;;;;17.50;10.55;;;21.30;75.90;;;;;;5016395;28;20054;-84
2021/09/01 10:01:47;;;;;;;18.02;10.45;;;21.30;76.50;;;;;;5016365;28;20022;-85
2021/09/01 10:04:13;;;;;;;13.77;10.60;;;21.30;77.60;;;;;;5017466;28;20037;-85
2021/09/01 10:06:41;;;;;;;19.23;13.15;;;21.20;77.50;;;;;;5016859;28;20033;-87
2021/09/01 10:09:08;;;;;;;16.63;8.85;;;21.30;78.70;;;;;;5017011;28;20026;-85
2021/09/01 10:11:37;;;;;;;12.13;9.40;;;21.60;78.40;;;;;;5015149;28;20022;-84
2021/09/01 10:14:03;;;;;;;11.63;8.80;;;22.00;77.80;;;;;;5016794;28;20113;-83
2021/09/01 10:16:32;;;;;;;10.88;9.05;;;22.40;74.70;;;;;;5019866;28;20026;-85
2021/09/01 10:19:30;;;;;;;16.13;10.15;;;22.80;73.80;;;;;;5020455;28;20022;-86
2021/09/01 10:22:00;;;;;;;12.68;9.50;;;23.00;72.30;;;;;;4993346;28;20034;-86
2021/09/01 10:24:36;;;;;;;15.40;9.82;;;23.30;71.60;;;;;;5004307;28;20380;-84
2021/09/01 10:27:02;;;;;;;13.10;8.38;;;23.70;71.50;;;;;;5016346;28;20061;-84
2021/09/01 10:29:58;;;;;;;14.77;9.52;;;23.80;70.80;;;;;;5016320;28;20034;-84
2021/09/01 10:32:30;;;;;;;15.00;8.27;;;23.90;70.60;;;;;;4994772;28;20033;-86
2021/09/01 10:35:16;;;;;;;14.93;9.23;;;24.20;67.50;;;;;;5016273;28;20029;-84
2021/09/01 10:37:44;;;;;;;15.40;9.20;;;24.20;67.20;;;;;;5015928;28;20521;-85
2021/09/01 10:40:10;;;;;;;;;;;24.40;67.10;;;;;;5015393;28;20084;-84
2021/09/01 10:42:38;;;;;;;;;;;24.50;66.60;;;;;;5016101;28;20358;-86
2021/09/01 10:45:29;;;;;;;13.95;9.00;;;24.40;67.10;;;;;;5015142;28;19964;-83
2021/09/01 10:47:58;;;;;;;18.52;8.48;;;24.20;65.90;;;;;;5019893;28;20026;-84
2021/09/01 10:50:30;;;;;;;10.75;7.35;;;23.90;66.60;;;;;;5015227;28;20510;-85
2021/09/01 10:53:19;;;;;;;14.13;8.85;;;23.50;67.10;;;;;;5015041;28;20065;-85
2021/09/01 10:55:49;;;;;;;13.80;8.50;;;23.20;68.70;;;;;;5015086;28;20020;-84
2021/09/01 10:58:40;;;;;;;13.43;8.48;;;23.20;69.40;;;;;;5008580;28;20019;-84
2021/09/01 11:01:22;;;;;;;14.98;8.75;;;23.20;69.60;;;;;;5011861;28;20113;-84
2021/09/01 11:04:02;;;;;;;12.00;8.65;;;23.10;69.30;;;;;;5014901;28;20376;-84
2021/09/01 11:06:38;;;;;;;14.30;9.00;;;22.90;69.90;;;;;;5015616;28;20037;-84
2021/09/01 11:09:12;;;;;;;11.68;9.63;;;22.80;70.50;;;;;;5014946;28;20072;-84
2021/09/01 11:11:38;;;;;;;13.18;9.02;;;22.80;71.00;;;;;;5015111;28;20510;-83
2021/09/01 11:14:04;;;;;;;15.98;9.50;;;22.60;71.50;;;;;;5014639;28;20103;-84
2021/09/01 11:16:30;;;;;;;16.63;9.75;;;22.60;72.00;;;;;;5014693;28;20025;-85
2021/09/01 11:19:07;;;;;;;16.05;9.95;;;22.50;72.90;;;;;;5013500;28;20570;-84
2021/09/01 11:21:38;;;;;;;;;;;22.30;73.30;;;;;;5015373;28;20022;-83
2021/09/01 11:24:07;;;;;;;11.38;8.85;;;22.20;73.00;;;;;;5015288;28;20364;-84
2021/09/01 11:26:33;;;;;;;14.07;9.18;;;22.00;74.60;;;;;;5015460;28;20030;-84
2021/09/01 11:29:00;;;;;;;14.23;9.77;;;22.00;75.80;;;;;;5017807;28;20018;-84
2021/09/01 11:31:27;;;;;;;15.25;9.25;;;21.80;76.00;;;;;;5024876;28;20099;-83
2021/09/01 11:33:57;;;;;;;17.20;10.47;;;21.60;77.10;;;;;;5019044;28;20538;-84
2021/09/01 11:36:28;;;;;;;17.35;10.10;;;21.50;78.20;;;;;;5015391;28;20029;-83
2021/09/01 11:38:58;;;;;;;12.93;9.25;;;21.50;78.60;;;;;;5015921;28;20415;-84
2021/09/01 11:41:26;;;;;;;12.15;9.35;;;21.60;77.70;;;;;;5014999;28;20379;-85
2021/09/01 11:43:59;;;;;;;12.85;9.07;;;21.60;77.50;;;;;;5008786;28;20034;-83
2021/09/01 11:46:27;;;;;;;16.02;9.85;;;21.60;77.70;;;;;;5006186;28;20037;-82
2021/09/01 11:48:56;;;;;;;13.63;9.63;;;21.50;78.30;;;;;;5016360;28;20034;-82
2021/09/01 11:51:22;;;;;;;17.35;9.98;;;21.50;78.60;;;;;;5018622;28;20030;-84
2021/09/01 11:53:48;;;;;;;15.55;9.32;;;21.60;79.00;;;;;;5014917;28;20018;-83
2021/09/01 11:56:14;;;;;;;12.63;8.80;;;21.60;79.10;;;;;;5014080;28;20052;-85
2021/09/01 11:58:40;;;;;;;13.40;9.55;;;21.50;78.80;;;;;;5014512;28;20021;-84
2021/09/01 12:01:13;;;;;;;11.60;9.13;;;21.30;79.60;;;;;;5015414;28;20033;-83
2021/09/01 12:03:39;;;;;;;12.43;9.57;;;21.30;80.20;;;;;;5017384;28;20022;-82
2021/09/01 12:06:06;;;;;;;13.07;10.05;;;21.40;80.30;;;;;;5018974;28;20064;-84
2021/09/01 12:08:41;;;;;;;11.15;9.32;;;21.50;80.50;;;;;;5017837;28;20112;-84
2021/09/01 12:11:09;;;;;;;11.65;8.95;;;21.50;79.50;;;;;;5014364;28;20113;-84
2021/09/01 12:13:40;;;;;;;10.02;7.53;;;21.50;79.80;;;;;;5014329;28;20392;-84
2021/09/01 12:16:06;;;;;;;14.77;9.65;;;21.40;79.70;;;;;;5013655;28;20017;-83
2021/09/01 12:18:51;;;;;;;12.20;8.23;;;21.30;80.10;;;;;;5013308;28;20365;-84
2021/09/01 12:21:18;;;;;;;12.30;8.07;;;21.20;79.80;;;;;;5013284;28;20134;-84
2021/09/01 12:23:45;;;;;;;10.40;8.73;;;21.10;80.80;;;;;;5014041;28;20042;-84
2021/09/01 12:26:13;;;;;;;11.50;8.57;;;20.90;81.40;;;;;;5014684;28;20565;-86
2021/09/01 12:28:46;;;;;;;10.57;8.32;;;20.90;81.60;;;;;;5013745;28;20418;-83
2021/09/01 12:31:22;;;;;;;12.13;8.82;;;21.00;81.80;;;;;;5012273;28;20026;-85
2021/09/01 12:33:48;;;;;;;14.63;8.38;;;20.90;81.70;;;;;;5012602;28;20033;-83